»·PEaware :: PSV130 KHND-KPSP

PSV130 :: KHND-KPSP

FLIGHT INFORMATION

Flight Status: Arrived
Operator:
Power Set Virtual (website)
More flights by this operator :: More flights under this callsign
Pilot: Anonymous 24489 (24489)
Aircraft: DASSAULT AVIATION FALCON 50
(FA50)
More flights by this aircraft type
Origin: KHND Henderson
United States
Destination: KPSP Palm Springs Intl
United States
More flights between these airports :: More routes between these airports
Route: BOACH GFS SBONO1
File this flight plan on PilotEdge
Remarks: RMK / SIMBRIEF
Altitude:
(Current/Filed)
36,000ft
Speed:
(Current/Filed)
463kts
Departed: 22-Oct-20 02:42 PM
Arrived: 22-Oct-20 03:18 PM
Distance/Time
Traveled:
146nm/0:36
Distance/Time
To Go:
Arrived

Flight Plot

Page will automatically refresh every two minutes.

Flight plan parsing failed; only flown route is shown


Map Options




Map Legend


Flown Route
Filed Route
Departure Airport
Arrival Airport
Navaid (VOR, NDB)
Fix

Horizontal Profiles

Position Reports

Time Latitude Longitude Heading Altitude Ground
Speed
22-Oct-20 14:19 35.978946 -115.139487 180 2495ft 0kts
22-Oct-20 14:20 35.978946 -115.139487 180 2495ft 0kts
22-Oct-20 14:21 35.978946 -115.139487 180 2495ft 0kts
22-Oct-20 14:22 35.978946 -115.139487 180 2495ft 0kts
22-Oct-20 14:23 35.978946 -115.139487 180 2495ft 0kts
22-Oct-20 14:24 35.978946 -115.139487 180 2495ft 0kts
22-Oct-20 14:25 35.978946 -115.139487 180 2495ft 0kts
22-Oct-20 14:26 35.978946 -115.139487 180 2495ft 0kts
22-Oct-20 14:27 35.978946 -115.139487 180 2495ft 0kts
22-Oct-20 14:28 35.978946 -115.139487 180 2495ft 0kts
22-Oct-20 14:29 35.978946 -115.139487 180 2495ft 0kts
22-Oct-20 14:30 35.978946 -115.139487 180 2496ft 0kts
22-Oct-20 14:31 35.978946 -115.139487 180 2496ft 0kts
22-Oct-20 14:32 35.978946 -115.139487 180 2496ft 0kts
22-Oct-20 14:33 35.978946 -115.139487 179 2496ft 0kts
22-Oct-20 14:34 35.978694 -115.139321 94 2496ft 0kts
22-Oct-20 14:35 35.979313 -115.138139 70 2496ft 16kts
22-Oct-20 14:36 35.977849 -115.136495 179 2496ft 8kts
22-Oct-20 14:37 35.974193 -115.136507 181 2496ft 21kts
22-Oct-20 14:38 35.968192 -115.136598 176 2496ft 21kts
22-Oct-20 14:39 35.963348 -115.136598 172 2496ft 0kts
22-Oct-20 14:40 35.963268 -115.136463 101 2496ft 4kts
22-Oct-20 14:41 35.982216 -115.135319 1 2862ft 185kts
22-Oct-20 14:42 36.008368 -115.087268 124 6518ft 247kts
22-Oct-20 14:43 35.943185 -115.072870 190 6995ft 246kts
22-Oct-20 14:44 35.876861 -115.087994 191 7081ft 239kts
22-Oct-20 14:45 35.803494 -115.104661 191 11610ft 286kts
22-Oct-20 14:46 35.721149 -115.122470 191 16906ft 311kts
22-Oct-20 14:47 35.626034 -115.135731 184 19242ft 401kts
22-Oct-20 14:48 35.508885 -115.144247 186 22164ft 436kts
22-Oct-20 14:49 35.387417 -115.154517 186 25705ft 430kts
22-Oct-20 14:50 35.271526 -115.164413 187 29442ft 405kts
22-Oct-20 14:51 35.160336 -115.174273 189 32015ft 398kts
22-Oct-20 14:52 35.052899 -115.211152 203 32916ft 421kts
22-Oct-20 14:53 34.932353 -115.264444 202 30660ft 485kts
22-Oct-20 14:54 34.804463 -115.320686 202 28565ft 488kts
22-Oct-20 14:55 34.677023 -115.376548 202 26000ft 471kts
22-Oct-20 14:56 34.557363 -115.428863 202 23902ft 457kts
22-Oct-20 14:57 34.436547 -115.481534 202 21915ft 471kts
22-Oct-20 14:58 34.316918 -115.543585 216 19551ft 425kts
22-Oct-20 14:59 34.238743 -115.628147 225 18010ft 401kts
22-Oct-20 15:00 34.152121 -115.725319 224 15648ft 380kts
22-Oct-20 15:01 34.073643 -115.801683 214 14028ft 367kts
22-Oct-20 15:02 33.979674 -115.877473 214 13062ft 373kts
22-Oct-20 15:03 33.906284 -115.961790 246 13025ft 382kts
22-Oct-20 15:04 33.876393 -116.080931 223 13007ft 383kts
22-Oct-20 15:05 33.773759 -116.111370 183 12733ft 389kts
22-Oct-20 15:06 33.690603 -116.112742 181 10678ft 262kts
22-Oct-20 15:07 33.616726 -116.112474 175 8340ft 269kts
22-Oct-20 15:08 33.596755 -116.046300 40 6948ft 240kts
22-Oct-20 15:09 33.656265 -116.081612 297 6721ft 278kts
22-Oct-20 15:10 33.684783 -116.158770 291 4849ft 248kts
22-Oct-20 15:11 33.708041 -116.230182 287 3858ft 230kts
22-Oct-20 15:12 33.724883 -116.299065 283 3766ft 204kts
22-Oct-20 15:13 33.738519 -116.364166 280 3560ft 193kts
22-Oct-20 15:14 33.752047 -116.427843 292 2793ft 196kts
22-Oct-20 15:15 33.783458 -116.470241 325 1572ft 140kts
22-Oct-20 15:16 33.812370 -116.492673 326 738ft 113kts
22-Oct-20 15:17 33.829174 -116.506980 340 481ft 29kts
22-Oct-20 15:18 33.830510 -116.507177 359 481ft 0kts
22-Oct-20 15:19 33.831458 -116.506455 58 481ft 9kts
22-Oct-20 15:20 33.829400 -116.503583 142 481ft 19kts
22-Oct-20 15:21 33.825839 -116.500340 142 481ft 13kts
22-Oct-20 15:22 33.824104 -116.498637 143 481ft 6kts
22-Oct-20 15:23 33.823121 -116.497777 145 481ft 0kts
22-Oct-20 15:24 33.823899 -116.498395 323 481ft 18kts
22-Oct-20 15:25 33.824607 -116.498732 52 481ft 0kts
22-Oct-20 15:26 33.824607 -116.498732 52 481ft 0kts
22-Oct-20 15:27 33.824607 -116.498732 52 481ft 0kts
22-Oct-20 15:28 33.824607 -116.498732 52 481ft 0kts
22-Oct-20 15:29 33.824607 -116.498732 52 481ft 0kts
22-Oct-20 15:30 33.824607 -116.498732 52 481ft 0kts

Navigation Log

Ident Type
Flight plan parsing failed, navigation log unavailable